Map

Track Data

SID SEASON NUMBER BASIN SUBBASIN NAME ISO_TIME NATURE LAT LON WMO_WIND WMO_PRES WMO_AGENCY TRACK_TYPE DIST2LAND LANDFALL IFLAG USA_AGENCY USA_ATCF_ID USA_LAT USA_LON USA_RECORD USA_STATUS USA_WIND USA_PRES USA_SSHS USA_R34_NE USA_R34_SE USA_R34_SW USA_R34_NW USA_R50_NE USA_R50_SE USA_R50_SW USA_R50_NW USA_R64_NE USA_R64_SE USA_R64_SW USA_R64_NW USA_POCI USA_ROCI USA_RMW USA_EYE TOKYO_LAT TOKYO_LON TOKYO_GRADE TOKYO_WIND TOKYO_PRES TOKYO_R50_DIR TOKYO_R50_LONG TOKYO_R50_SHORT TOKYO_R30_DIR TOKYO_R30_LONG TOKYO_R30_SHORT TOKYO_LAND CMA_LAT CMA_LON CMA_CAT CMA_WIND CMA_PRES HKO_LAT HKO_LON HKO_CAT HKO_WIND HKO_PRES NEWDELHI_LAT NEWDELHI_LON NEWDELHI_GRADE NEWDELHI_WIND NEWDELHI_PRES NEWDELHI_CI NEWDELHI_DP NEWDELHI_POCI REUNION_LAT REUNION_LON REUNION_TYPE REUNION_WIND REUNION_PRES REUNION_TNUM REUNION_CI REUNION_RMW REUNION_R34_NE REUNION_R34_SE REUNION_R34_SW REUNION_R34_NW REUNION_R50_NE REUNION_R50_SE REUNION_R50_SW REUNION_R50_NW REUNION_R64_NE REUNION_R64_SE REUNION_R64_SW REUNION_R64_NW BOM_LAT BOM_LON BOM_TYPE BOM_WIND BOM_PRES BOM_TNUM BOM_CI BOM_RMW BOM_R34_NE BOM_R34_SE BOM_R34_SW BOM_R34_NW BOM_R50_NE BOM_R50_SE BOM_R50_SW BOM_R50_NW BOM_R64_NE BOM_R64_SE BOM_R64_SW BOM_R64_NW BOM_ROCI BOM_POCI BOM_EYE BOM_POS_METHOD BOM_PRES_METHOD NADI_LAT NADI_LON NADI_CAT NADI_WIND NADI_PRES WELLINGTON_LAT WELLINGTON_LON WELLINGTON_WIND WELLINGTON_PRES DS824_LAT DS824_LON DS824_STAGE DS824_WIND DS824_PRES TD9636_LAT TD9636_LON TD9636_STAGE TD9636_WIND TD9636_PRES TD9635_LAT TD9635_LON TD9635_WIND TD9635_PRES TD9635_ROCI NEUMANN_LAT NEUMANN_LON NEUMANN_CLASS NEUMANN_WIND NEUMANN_PRES MLC_LAT MLC_LON MLC_CLASS MLC_WIND MLC_PRES USA_GUST BOM_GUST BOM_GUST_PER REUNION_GUST REUNION_GUST_PER USA_SEAHGT USA_SEARAD_NE USA_SEARAD_SE USA_SEARAD_SW USA_SEARAD_NW STORM_SPEED STORM_DIR
1888250N20087 1888 43 NI BB NOT_NAMED 1888-09-06 00:00:00 TS 20.3000 87.1000 main 38 10 _________O____ -1 20.3000 87.1000 TC 30 6 328
1888250N20087 1888 43 NI BB NOT_NAMED 1888-09-06 03:00:00 TS 20.5384 86.9368 main 10 0 _________PO___ -1 20.6576 86.8552 TC 30 20.3000 87.1000 1 7 326
1888250N20087 1888 43 NI BB NOT_NAMED 1888-09-06 06:00:00 TS 20.8569 86.7040 main 0 0 _________OP___ -1 21.0000 86.6000 TC 30 20.6422 86.8600 1 8 324
1888250N20087 1888 43 NI BB NOT_NAMED 1888-09-06 09:00:00 TS 21.1703 86.4437 main 0 0 _________PP___ -1 21.3149 86.3223 TC 30 20.9774 86.6056 1 8 320
1888250N20087 1888 43 NI BB NOT_NAMED 1888-09-06 12:00:00 TS 21.4495 86.1617 main 0 0 _________OP___ -1 21.6000 86.0000 TC 30 21.2989 86.3234 1 8 313
1888250N20087 1888 43 NI BB NOT_NAMED 1888-09-06 15:00:00 TS 21.7288 85.8074 main 0 0 _________PO___ -1 21.8575 85.6149 TC 30 21.6000 86.0000 1 9 308
1888250N20087 1888 43 NI BB NOT_NAMED 1888-09-06 18:00:00 TS 21.9879 85.4138 main 0 0 _________OP___ -1 22.1000 85.2000 TC 30 21.8758 85.6277 1 9 305
1888250N20087 1888 43 NI BB NOT_NAMED 1888-09-06 21:00:00 TS 22.2439 85.0074 main 0 0 _________PP___ -1 22.3575 84.7925 TC 30 22.1303 85.2223 1 9 303
1888250N20087 1888 43 NI BB NOT_NAMED 1888-09-07 00:00:00 TS 22.4848 84.6029 main 0 0 _________OP___ -1 22.6000 84.4000 TC 30 22.3696 84.8058 1 9 302
1888250N20087 1888 43 NI BB NOT_NAMED 1888-09-07 03:00:00 TS 22.6999 84.2211 main 0 0 _________PO___ -1 22.7999 84.0422 TC 30 22.6000 84.4000 1 8 302
1888250N20087 1888 43 NI BB NOT_NAMED 1888-09-07 06:00:00 TS 22.9078 83.8634 main 0 0 _________OP___ -1 23.0000 83.7000 TC 30 22.8157 84.0268 1 8 303
1888250N20087 1888 43 NI BB NOT_NAMED 1888-09-07 09:00:00 TS 23.1310 83.5094 main 0 0 _________PP___ -1 23.2349 83.3499 TC 30 23.0272 83.6690 1 8 306
1888250N20087 1888 43 NI BB NOT_NAMED 1888-09-07 12:00:00 TS 23.3750 83.1634 main 0 0 _________OP___ -1 23.5000 83.0000 TC 30 23.2501 83.3268 1 8 309
1888250N20087 1888 43 NI BB NOT_NAMED 1888-09-07 15:00:00 TS 23.6425 82.8175 main 0 0 _________PO___ -1 23.7850 82.6350 TC 30 23.5000 83.0000 1 9 313
1888250N20087 1888 43 NI BB NOT_NAMED 1888-09-07 18:00:00 TS 23.9644 82.4729 main 0 0 _________OP___ -1 24.1000 82.3000 TC 30 23.8288 82.6458 1 9 319
1888250N20087 1888 43 NI BB NOT_NAMED 1888-09-07 21:00:00 TS 24.3263 82.1582 main 0 0 _________PP___ -1 24.4725 82.0051 TC 30 24.1802 82.3112 1 9 324
1888250N20087 1888 43 NI BB NOT_NAMED 1888-09-08 00:00:00 TS 24.6582 81.9104 main 0 0 _________OP___ -1 24.8000 81.8000 TC 30 24.5164 82.0208 1 7 327
1888250N20087 1888 43 NI BB NOT_NAMED 1888-09-08 03:00:00 TS 24.8937 81.7599 main 0 0 _________PO___ -1 24.9874 81.7197 TC 30 24.8000 81.8000 1 4 332
1888250N20087 1888 43 NI BB NOT_NAMED 1888-09-08 06:00:00 TS 25.0451 81.6886 main 0 0 _________OP___ -1 25.1000 81.7000 TC 30 24.9902 81.6772 1 3 338
1888250N20087 1888 43 NI BB NOT_NAMED 1888-09-08 09:00:00 TS 25.1698 81.6369 main 0 0 _________PP___ -1 25.2150 81.6500 TC 30 25.1245 81.6239 1 2 339
1888250N20087 1888 43 NI BB NOT_NAMED 1888-09-08 12:00:00 TS 25.2608 81.6044 main 0 0 _________OP___ -1 25.3000 81.6000 TC 30 25.2216 81.6087 1 2 342
1888250N20087 1888 43 NI BB NOT_NAMED 1888-09-08 15:00:00 TS 25.3250 81.5750 main 0 0 _________PO___ -1 25.3500 81.5500 TC 30 25.3000 81.6000 1 1 330
1888250N20087 1888 43 NI BB NOT_NAMED 1888-09-08 18:00:00 TS 25.3886 81.5189 main 0 0 _________OP___ -1 25.4000 81.5000 TC 30 25.3772 81.5378 1 2 324
1888250N20087 1888 43 NI BB NOT_NAMED 1888-09-08 21:00:00 TS 25.4638 81.4600 main 0 0 _________PP___ -1 25.4850 81.4425 TC 30 25.4425 81.4775 1 2 330
1888250N20087 1888 43 NI BB NOT_NAMED 1888-09-09 00:00:00 TS 25.5558 81.4142 main 0 0 _________OP___ -1 25.6000 81.4000 TC 30 25.5116 81.4285 1 2 343
1888250N20087 1888 43 NI BB NOT_NAMED 1888-09-09 03:00:00 TS 25.6712 81.3925 main 0 0 _________PO___ -1 25.7425 81.3850 TC 30 25.6000 81.4000 1 3 355
1888250N20087 1888 43 NI BB NOT_NAMED 1888-09-09 06:00:00 TS 25.8142 81.3977 main 0 0 _________OP___ -1 25.9000 81.4000 TC 30 25.7284 81.3953 1 3 9
1888250N20087 1888 43 NI BB NOT_NAMED 1888-09-09 09:00:00 TS 25.9637 81.4275 main 0 0 _________PP___ -1 26.0500 81.4425 TC 30 25.8775 81.4125 1 3 12
1888250N20087 1888 43 NI BB NOT_NAMED 1888-09-09 12:00:00 TS 26.1189 81.4742 main 0 0 _________OP___ -1 26.2000 81.5000 TC 30 26.0378 81.4485 1 3 16
1888250N20087 1888 43 NI BB NOT_NAMED 1888-09-09 15:00:00 TS 26.2750 81.5213 main 0 0 _________PO___ -1 26.3500 81.5425 TC 30 26.2000 81.5000 1 3 18
1888250N20087 1888 43 NI BB NOT_NAMED 1888-09-09 18:00:00 TS 26.4181 81.5794 main 0 0 _________OP___ -1 26.5000 81.6000 TC 30 26.3566 81.5640 1 3 24
1888250N20087 1888 43 NI BB NOT_NAMED 1888-09-09 21:00:00 TS 26.5645 81.6584 main 0 0 _________PP___ -1 26.6500 81.6899 TC 30 26.5076 81.6373 1 3 28
1888250N20087 1888 43 NI BB NOT_NAMED 1888-09-10 00:00:00 TS 26.7032 81.7447 main 0 0 _________OP___ -1 26.8000 81.8000 TC 30 26.6547 81.7170 1 3 27
1888250N20087 1888 43 NI BB NOT_NAMED 1888-09-10 03:00:00 NR 26.8000 81.8000 main 0 __________O___ -1 TC 26.8000 81.8000 1 2 30

About IBTrACS Database

This database is a web-friendly format of International Best Track Archive for Climate Stewardship (IBTrACS), a global best track data archive curated by NOAA dating back to 1842.

Updated: 2021-10-08